sensor_id;sensor_type;location;lat;lon;timestamp;P1;durP1;ratioP1;P2;durP2;ratioP2
14470;SDS011;7321;50.802;4.336;2022-12-07T00:02:20;21.10;;;17.77;;
14470;SDS011;7321;50.802;4.336;2022-12-07T00:05:15;22.80;;;17.97;;
14470;SDS011;7321;50.802;4.336;2022-12-07T00:07:43;21.60;;;18.50;;
14470;SDS011;7321;50.802;4.336;2022-12-07T00:10:09;20.47;;;18.13;;
14470;SDS011;7321;50.802;4.336;2022-12-07T00:12:37;21.77;;;18.23;;
14470;SDS011;7321;50.802;4.336;2022-12-07T00:15:15;22.03;;;18.40;;
14470;SDS011;7321;50.802;4.336;2022-12-07T00:17:48;25.83;;;18.90;;
14470;SDS011;7321;50.802;4.336;2022-12-07T00:20:14;22.93;;;18.50;;
14470;SDS011;7321;50.802;4.336;2022-12-07T00:22:40;25.40;;;19.27;;
14470;SDS011;7321;50.802;4.336;2022-12-07T00:25:06;27.27;;;19.87;;
14470;SDS011;7321;50.802;4.336;2022-12-07T00:27:32;29.63;;;20.60;;
14470;SDS011;7321;50.802;4.336;2022-12-07T00:29:57;24.37;;;18.63;;
14470;SDS011;7321;50.802;4.336;2022-12-07T00:32:23;26.77;;;20.23;;
14470;SDS011;7321;50.802;4.336;2022-12-07T00:34:49;23.80;;;20.60;;
14470;SDS011;7321;50.802;4.336;2022-12-07T00:37:17;22.50;;;19.57;;
14470;SDS011;7321;50.802;4.336;2022-12-07T00:39:43;21.97;;;18.17;;
14470;SDS011;7321;50.802;4.336;2022-12-07T00:42:10;22.43;;;18.10;;
14470;SDS011;7321;50.802;4.336;2022-12-07T00:44:36;25.43;;;20.17;;
14470;SDS011;7321;50.802;4.336;2022-12-07T00:47:01;23.83;;;18.17;;
14470;SDS011;7321;50.802;4.336;2022-12-07T00:49:27;23.07;;;19.07;;
14470;SDS011;7321;50.802;4.336;2022-12-07T00:51:53;22.50;;;18.33;;
14470;SDS011;7321;50.802;4.336;2022-12-07T00:54:19;24.23;;;19.03;;
14470;SDS011;7321;50.802;4.336;2022-12-07T00:56:45;22.57;;;18.60;;
14470;SDS011;7321;50.802;4.336;2022-12-07T00:59:11;22.90;;;19.27;;
14470;SDS011;7321;50.802;4.336;2022-12-07T01:01:41;22.87;;;19.33;;
14470;SDS011;7321;50.802;4.336;2022-12-07T01:04:08;25.80;;;18.33;;
14470;SDS011;7321;50.802;4.336;2022-12-07T01:06:34;23.03;;;17.87;;
14470;SDS011;7321;50.802;4.336;2022-12-07T01:09:00;23.83;;;19.07;;
14470;SDS011;7321;50.802;4.336;2022-12-07T01:11:27;25.73;;;19.70;;
14470;SDS011;7321;50.802;4.336;2022-12-07T01:13:55;23.60;;;18.97;;
14470;SDS011;7321;50.802;4.336;2022-12-07T01:16:23;24.17;;;19.23;;
14470;SDS011;7321;50.802;4.336;2022-12-07T01:18:50;23.20;;;18.23;;
14470;SDS011;7321;50.802;4.336;2022-12-07T01:21:19;23.63;;;18.87;;
14470;SDS011;7321;50.802;4.336;2022-12-07T01:23:46;22.50;;;19.50;;
14470;SDS011;7321;50.802;4.336;2022-12-07T01:26:15;24.07;;;18.60;;
14470;SDS011;7321;50.802;4.336;2022-12-07T01:28:42;21.33;;;17.67;;
14470;SDS011;7321;50.802;4.336;2022-12-07T01:31:09;24.53;;;18.93;;
14470;SDS011;7321;50.802;4.336;2022-12-07T01:33:43;22.93;;;18.40;;
14470;SDS011;7321;50.802;4.336;2022-12-07T01:38:44;23.60;;;18.57;;
14470;SDS011;7321;50.802;4.336;2022-12-07T01:41:11;24.77;;;18.40;;
14470;SDS011;7321;50.802;4.336;2022-12-07T01:44:07;27.00;;;19.00;;
14470;SDS011;7321;50.802;4.336;2022-12-07T01:46:47;22.07;;;17.57;;
14470;SDS011;7321;50.802;4.336;2022-12-07T01:49:21;22.67;;;18.07;;
14470;SDS011;7321;50.802;4.336;2022-12-07T01:52:09;22.43;;;18.90;;
14470;SDS011;7321;50.802;4.336;2022-12-07T01:54:41;20.57;;;18.03;;
14470;SDS011;7321;50.802;4.336;2022-12-07T01:57:09;21.50;;;17.90;;
14470;SDS011;7321;50.802;4.336;2022-12-07T01:59:35;21.77;;;19.03;;
14470;SDS011;7321;50.802;4.336;2022-12-07T02:02:04;21.60;;;18.13;;
14470;SDS011;7321;50.802;4.336;2022-12-07T02:04:35;19.80;;;17.57;;
14470;SDS011;7321;50.802;4.336;2022-12-07T02:07:01;23.10;;;19.13;;
14470;SDS011;7321;50.802;4.336;2022-12-07T02:09:29;21.20;;;18.30;;
14470;SDS011;7321;50.802;4.336;2022-12-07T02:11:55;22.10;;;17.27;;
14470;SDS011;7321;50.802;4.336;2022-12-07T02:14:21;23.33;;;18.60;;
14470;SDS011;7321;50.802;4.336;2022-12-07T02:16:51;20.47;;;17.60;;
14470;SDS011;7321;50.802;4.336;2022-12-07T02:19:29;22.80;;;17.00;;
14470;SDS011;7321;50.802;4.336;2022-12-07T02:22:48;20.90;;;17.47;;
14470;SDS011;7321;50.802;4.336;2022-12-07T02:28:05;23.67;;;17.10;;
14470;SDS011;7321;50.802;4.336;2022-12-07T02:30:40;21.50;;;18.23;;
14470;SDS011;7321;50.802;4.336;2022-12-07T02:33:17;21.97;;;17.53;;
14470;SDS011;7321;50.802;4.336;2022-12-07T02:36:06;20.80;;;17.33;;
14470;SDS011;7321;50.802;4.336;2022-12-07T02:38:47;20.63;;;17.67;;
14470;SDS011;7321;50.802;4.336;2022-12-07T02:41:27;21.47;;;17.10;;
14470;SDS011;7321;50.802;4.336;2022-12-07T02:44:00;19.27;;;16.43;;
14470;SDS011;7321;50.802;4.336;2022-12-07T02:46:32;18.23;;;15.87;;
14470;SDS011;7321;50.802;4.336;2022-12-07T02:49:02;21.07;;;17.00;;
14470;SDS011;7321;50.802;4.336;2022-12-07T02:51:30;20.30;;;17.20;;
14470;SDS011;7321;50.802;4.336;2022-12-07T02:53:57;19.33;;;16.63;;
14470;SDS011;7321;50.802;4.336;2022-12-07T03:01:54;22.27;;;17.13;;
14470;SDS011;7321;50.802;4.336;2022-12-07T03:07:29;22.57;;;18.27;;
14470;SDS011;7321;50.802;4.336;2022-12-07T03:12:44;21.83;;;17.17;;
14470;SDS011;7321;50.802;4.336;2022-12-07T03:15:20;21.33;;;17.10;;
14470;SDS011;7321;50.802;4.336;2022-12-07T03:17:52;20.90;;;17.37;;
14470;SDS011;7321;50.802;4.336;2022-12-07T03:20:22;22.53;;;17.07;;
14470;SDS011;7321;50.802;4.336;2022-12-07T03:22:49;20.33;;;17.73;;
14470;SDS011;7321;50.802;4.336;2022-12-07T03:25:17;20.90;;;17.27;;
14470;SDS011;7321;50.802;4.336;2022-12-07T03:30:10;22.60;;;18.23;;
14470;SDS011;7321;50.802;4.336;2022-12-07T03:32:53;19.67;;;17.60;;
14470;SDS011;7321;50.802;4.336;2022-12-07T03:35:29;19.73;;;17.57;;
14470;SDS011;7321;50.802;4.336;2022-12-07T03:38:06;20.13;;;17.13;;
14470;SDS011;7321;50.802;4.336;2022-12-07T03:43:15;22.40;;;17.37;;
14470;SDS011;7321;50.802;4.336;2022-12-07T03:45:43;21.10;;;16.80;;
14470;SDS011;7321;50.802;4.336;2022-12-07T03:48:26;20.33;;;17.50;;
14470;SDS011;7321;50.802;4.336;2022-12-07T03:51:18;19.07;;;16.33;;
14470;SDS011;7321;50.802;4.336;2022-12-07T03:56:45;21.93;;;17.63;;
14470;SDS011;7321;50.802;4.336;2022-12-07T03:59:12;21.50;;;17.50;;
14470;SDS011;7321;50.802;4.336;2022-12-07T04:01:41;20.57;;;17.40;;
14470;SDS011;7321;50.802;4.336;2022-12-07T04:04:08;22.63;;;17.67;;
14470;SDS011;7321;50.802;4.336;2022-12-07T04:06:34;21.80;;;17.87;;
14470;SDS011;7321;50.802;4.336;2022-12-07T04:09:00;20.50;;;18.30;;
14470;SDS011;7321;50.802;4.336;2022-12-07T04:11:26;22.07;;;17.97;;
14470;SDS011;7321;50.802;4.336;2022-12-07T04:13:52;22.73;;;17.63;;
14470;SDS011;7321;50.802;4.336;2022-12-07T04:16:36;23.27;;;19.63;;
14470;SDS011;7321;50.802;4.336;2022-12-07T04:19:02;21.63;;;18.00;;
14470;SDS011;7321;50.802;4.336;2022-12-07T04:21:27;22.80;;;18.50;;
14470;SDS011;7321;50.802;4.336;2022-12-07T04:23:53;22.37;;;18.27;;
14470;SDS011;7321;50.802;4.336;2022-12-07T04:26:19;20.60;;;18.40;;
14470;SDS011;7321;50.802;4.336;2022-12-07T04:28:45;21.27;;;18.27;;
14470;SDS011;7321;50.802;4.336;2022-12-07T04:31:10;22.53;;;18.80;;
14470;SDS011;7321;50.802;4.336;2022-12-07T04:33:36;21.73;;;18.17;;
14470;SDS011;7321;50.802;4.336;2022-12-07T04:36:02;24.70;;;19.23;;
14470;SDS011;7321;50.802;4.336;2022-12-07T04:38:28;23.27;;;18.60;;
14470;SDS011;7321;50.802;4.336;2022-12-07T04:40:54;22.40;;;18.60;;
14470;SDS011;7321;50.802;4.336;2022-12-07T04:43:19;23.53;;;19.50;;
14470;SDS011;7321;50.802;4.336;2022-12-07T04:45:46;21.60;;;18.80;;
14470;SDS011;7321;50.802;4.336;2022-12-07T04:48:12;21.30;;;18.50;;
14470;SDS011;7321;50.802;4.336;2022-12-07T04:50:38;27.70;;;19.23;;
14470;SDS011;7321;50.802;4.336;2022-12-07T04:53:04;24.87;;;19.23;;
14470;SDS011;7321;50.802;4.336;2022-12-07T04:55:30;24.27;;;18.70;;
14470;SDS011;7321;50.802;4.336;2022-12-07T04:57:55;20.53;;;17.60;;
14470;SDS011;7321;50.802;4.336;2022-12-07T05:00:21;26.13;;;18.70;;
14470;SDS011;7321;50.802;4.336;2022-12-07T05:02:47;21.53;;;18.50;;
14470;SDS011;7321;50.802;4.336;2022-12-07T05:05:13;20.40;;;17.47;;
14470;SDS011;7321;50.802;4.336;2022-12-07T05:07:39;22.40;;;18.07;;
14470;SDS011;7321;50.802;4.336;2022-12-07T05:10:05;22.77;;;19.17;;
14470;SDS011;7321;50.802;4.336;2022-12-07T05:12:31;21.50;;;17.67;;
14470;SDS011;7321;50.802;4.336;2022-12-07T05:14:57;20.33;;;17.33;;
14470;SDS011;7321;50.802;4.336;2022-12-07T05:17:23;22.30;;;17.87;;
14470;SDS011;7321;50.802;4.336;2022-12-07T05:19:49;21.23;;;17.73;;
14470;SDS011;7321;50.802;4.336;2022-12-07T05:22:14;20.40;;;17.93;;
14470;SDS011;7321;50.802;4.336;2022-12-07T05:24:43;21.60;;;18.20;;
14470;SDS011;7321;50.802;4.336;2022-12-07T05:27:09;21.27;;;18.77;;
14470;SDS011;7321;50.802;4.336;2022-12-07T05:29:35;23.70;;;18.07;;
14470;SDS011;7321;50.802;4.336;2022-12-07T05:32:00;21.57;;;18.00;;
14470;SDS011;7321;50.802;4.336;2022-12-07T05:34:26;23.33;;;18.23;;
14470;SDS011;7321;50.802;4.336;2022-12-07T05:36:52;23.07;;;18.23;;
14470;SDS011;7321;50.802;4.336;2022-12-07T05:39:18;21.83;;;18.53;;
14470;SDS011;7321;50.802;4.336;2022-12-07T05:41:43;21.37;;;18.00;;
14470;SDS011;7321;50.802;4.336;2022-12-07T05:44:28;21.63;;;17.73;;
14470;SDS011;7321;50.802;4.336;2022-12-07T05:46:54;21.83;;;18.80;;
14470;SDS011;7321;50.802;4.336;2022-12-07T05:49:19;22.70;;;18.23;;
14470;SDS011;7321;50.802;4.336;2022-12-07T05:51:45;22.20;;;19.07;;
14470;SDS011;7321;50.802;4.336;2022-12-07T05:54:11;22.40;;;18.23;;
14470;SDS011;7321;50.802;4.336;2022-12-07T05:56:37;23.30;;;18.63;;
14470;SDS011;7321;50.802;4.336;2022-12-07T05:59:03;22.43;;;18.43;;
14470;SDS011;7321;50.802;4.336;2022-12-07T06:01:51;22.13;;;17.83;;
14470;SDS011;7321;50.802;4.336;2022-12-07T06:04:18;23.10;;;18.87;;
14470;SDS011;7321;50.802;4.336;2022-12-07T06:06:44;23.97;;;19.10;;
14470;SDS011;7321;50.802;4.336;2022-12-07T06:09:10;22.70;;;18.43;;
14470;SDS011;7321;50.802;4.336;2022-12-07T06:11:37;21.00;;;17.53;;
14470;SDS011;7321;50.802;4.336;2022-12-07T06:14:22;21.53;;;18.47;;
14470;SDS011;7321;50.802;4.336;2022-12-07T06:16:48;24.77;;;19.13;;
14470;SDS011;7321;50.802;4.336;2022-12-07T06:19:14;23.30;;;17.87;;
14470;SDS011;7321;50.802;4.336;2022-12-07T06:21:40;22.57;;;17.50;;
14470;SDS011;7321;50.802;4.336;2022-12-07T06:24:07;22.63;;;19.00;;
14470;SDS011;7321;50.802;4.336;2022-12-07T06:26:34;23.20;;;19.03;;
14470;SDS011;7321;50.802;4.336;2022-12-07T06:28:59;21.57;;;18.53;;
14470;SDS011;7321;50.802;4.336;2022-12-07T06:31:26;20.73;;;17.90;;
14470;SDS011;7321;50.802;4.336;2022-12-07T06:33:56;24.10;;;17.00;;
14470;SDS011;7321;50.802;4.336;2022-12-07T06:36:29;23.70;;;17.03;;
14470;SDS011;7321;50.802;4.336;2022-12-07T06:38:56;21.57;;;17.80;;
14470;SDS011;7321;50.802;4.336;2022-12-07T06:41:22;20.33;;;18.13;;
14470;SDS011;7321;50.802;4.336;2022-12-07T06:43:48;21.13;;;17.90;;
14470;SDS011;7321;50.802;4.336;2022-12-07T06:46:15;19.80;;;16.63;;
14470;SDS011;7321;50.802;4.336;2022-12-07T06:48:41;20.77;;;17.63;;
14470;SDS011;7321;50.802;4.336;2022-12-07T06:51:07;22.63;;;18.23;;
14470;SDS011;7321;50.802;4.336;2022-12-07T06:53:34;19.87;;;16.87;;
14470;SDS011;7321;50.802;4.336;2022-12-07T06:56:00;22.60;;;17.97;;
14470;SDS011;7321;50.802;4.336;2022-12-07T06:58:26;20.97;;;17.27;;
14470;SDS011;7321;50.802;4.336;2022-12-07T07:00:52;21.50;;;17.20;;
14470;SDS011;7321;50.802;4.336;2022-12-07T07:03:17;23.10;;;16.80;;
14470;SDS011;7321;50.802;4.336;2022-12-07T07:05:43;20.77;;;15.77;;
14470;SDS011;7321;50.802;4.336;2022-12-07T07:08:09;17.67;;;15.80;;
14470;SDS011;7321;50.802;4.336;2022-12-07T07:10:36;19.30;;;16.13;;
14470;SDS011;7321;50.802;4.336;2022-12-07T07:13:03;21.47;;;16.63;;
14470;SDS011;7321;50.802;4.336;2022-12-07T07:15:29;20.87;;;16.90;;
14470;SDS011;7321;50.802;4.336;2022-12-07T07:17:55;18.57;;;16.40;;
14470;SDS011;7321;50.802;4.336;2022-12-07T07:20:21;20.87;;;17.27;;
14470;SDS011;7321;50.802;4.336;2022-12-07T07:22:47;19.33;;;17.00;;
14470;SDS011;7321;50.802;4.336;2022-12-07T07:25:13;20.90;;;16.07;;
14470;SDS011;7321;50.802;4.336;2022-12-07T07:27:39;19.83;;;16.10;;
14470;SDS011;7321;50.802;4.336;2022-12-07T07:30:05;22.40;;;16.27;;
14470;SDS011;7321;50.802;4.336;2022-12-07T07:32:32;21.20;;;15.57;;
14470;SDS011;7321;50.802;4.336;2022-12-07T07:35:00;18.17;;;16.13;;
14470;SDS011;7321;50.802;4.336;2022-12-07T07:37:26;21.10;;;16.13;;
14470;SDS011;7321;50.802;4.336;2022-12-07T07:39:52;21.33;;;16.37;;
14470;SDS011;7321;50.802;4.336;2022-12-07T07:42:17;22.67;;;17.17;;
14470;SDS011;7321;50.802;4.336;2022-12-07T07:44:43;21.23;;;16.13;;
14470;SDS011;7321;50.802;4.336;2022-12-07T07:47:09;19.80;;;16.57;;
14470;SDS011;7321;50.802;4.336;2022-12-07T07:49:35;23.27;;;17.50;;
14470;SDS011;7321;50.802;4.336;2022-12-07T07:52:00;21.70;;;17.07;;
14470;SDS011;7321;50.802;4.336;2022-12-07T07:54:26;24.23;;;17.93;;
14470;SDS011;7321;50.802;4.336;2022-12-07T07:56:52;25.27;;;19.37;;
14470;SDS011;7321;50.802;4.336;2022-12-07T07:59:18;23.57;;;18.27;;
14470;SDS011;7321;50.802;4.336;2022-12-07T08:01:44;25.07;;;18.60;;
14470;SDS011;7321;50.802;4.336;2022-12-07T08:04:09;25.60;;;18.97;;
14470;SDS011;7321;50.802;4.336;2022-12-07T08:06:35;24.63;;;18.57;;
14470;SDS011;7321;50.802;4.336;2022-12-07T08:09:01;23.77;;;19.27;;
14470;SDS011;7321;50.802;4.336;2022-12-07T08:11:28;23.37;;;17.17;;
14470;SDS011;7321;50.802;4.336;2022-12-07T08:13:54;23.50;;;18.63;;
14470;SDS011;7321;50.802;4.336;2022-12-07T08:16:20;22.10;;;17.97;;
14470;SDS011;7321;50.802;4.336;2022-12-07T08:18:45;23.63;;;18.13;;
14470;SDS011;7321;50.802;4.336;2022-12-07T08:21:12;22.83;;;18.07;;
14470;SDS011;7321;50.802;4.336;2022-12-07T08:23:40;23.50;;;17.73;;
14470;SDS011;7321;50.802;4.336;2022-12-07T08:26:07;20.50;;;17.93;;
14470;SDS011;7321;50.802;4.336;2022-12-07T08:28:35;23.10;;;17.90;;
14470;SDS011;7321;50.802;4.336;2022-12-07T08:31:05;22.73;;;17.67;;
14470;SDS011;7321;50.802;4.336;2022-12-07T08:33:33;22.93;;;17.43;;
14470;SDS011;7321;50.802;4.336;2022-12-07T08:36:03;22.47;;;17.03;;
14470;SDS011;7321;50.802;4.336;2022-12-07T08:38:31;21.73;;;16.43;;
14470;SDS011;7321;50.802;4.336;2022-12-07T08:40:57;23.10;;;17.30;;
14470;SDS011;7321;50.802;4.336;2022-12-07T08:43:24;23.70;;;18.23;;
14470;SDS011;7321;50.802;4.336;2022-12-07T08:46:02;24.07;;;17.47;;
14470;SDS011;7321;50.802;4.336;2022-12-07T08:51:42;26.93;;;16.63;;
14470;SDS011;7321;50.802;4.336;2022-12-07T08:54:09;19.93;;;16.47;;
14470;SDS011;7321;50.802;4.336;2022-12-07T08:56:38;19.63;;;15.50;;
14470;SDS011;7321;50.802;4.336;2022-12-07T08:59:04;18.03;;;14.37;;
14470;SDS011;7321;50.802;4.336;2022-12-07T09:01:31;20.57;;;15.37;;
14470;SDS011;7321;50.802;4.336;2022-12-07T09:03:58;20.70;;;14.30;;
14470;SDS011;7321;50.802;4.336;2022-12-07T09:06:23;17.67;;;13.90;;
14470;SDS011;7321;50.802;4.336;2022-12-07T09:08:50;19.00;;;13.07;;
14470;SDS011;7321;50.802;4.336;2022-12-07T09:11:19;17.13;;;13.70;;
14470;SDS011;7321;50.802;4.336;2022-12-07T09:13:45;17.23;;;12.70;;
14470;SDS011;7321;50.802;4.336;2022-12-07T09:16:11;14.43;;;12.00;;
14470;SDS011;7321;50.802;4.336;2022-12-07T09:18:37;21.07;;;14.30;;
14470;SDS011;7321;50.802;4.336;2022-12-07T09:21:03;21.13;;;14.27;;
14470;SDS011;7321;50.802;4.336;2022-12-07T09:23:30;21.80;;;13.73;;
14470;SDS011;7321;50.802;4.336;2022-12-07T09:25:59;18.47;;;13.63;;
14470;SDS011;7321;50.802;4.336;2022-12-07T09:28:25;19.37;;;14.47;;
14470;SDS011;7321;50.802;4.336;2022-12-07T09:30:51;16.97;;;13.20;;
14470;SDS011;7321;50.802;4.336;2022-12-07T09:33:17;17.87;;;12.77;;
14470;SDS011;7321;50.802;4.336;2022-12-07T09:35:47;18.30;;;12.97;;
14470;SDS011;7321;50.802;4.336;2022-12-07T09:38:13;16.87;;;13.13;;
14470;SDS011;7321;50.802;4.336;2022-12-07T09:40:40;16.07;;;12.23;;
14470;SDS011;7321;50.802;4.336;2022-12-07T09:43:12;18.97;;;13.80;;
14470;SDS011;7321;50.802;4.336;2022-12-07T09:45:40;20.73;;;14.20;;
14470;SDS011;7321;50.802;4.336;2022-12-07T09:48:11;18.43;;;12.50;;
14470;SDS011;7321;50.802;4.336;2022-12-07T09:50:50;17.80;;;11.87;;
14470;SDS011;7321;50.802;4.336;2022-12-07T09:53:20;16.83;;;13.53;;
14470;SDS011;7321;50.802;4.336;2022-12-07T09:56:02;23.07;;;15.70;;
14470;SDS011;7321;50.802;4.336;2022-12-07T09:58:29;21.27;;;14.90;;
14470;SDS011;7321;50.802;4.336;2022-12-07T10:00:57;14.03;;;11.63;;
14470;SDS011;7321;50.802;4.336;2022-12-07T10:03:28;14.10;;;10.83;;
14470;SDS011;7321;50.802;4.336;2022-12-07T10:05:54;14.77;;;11.60;;
14470;SDS011;7321;50.802;4.336;2022-12-07T10:08:22;16.70;;;11.10;;
14470;SDS011;7321;50.802;4.336;2022-12-07T10:10:51;16.30;;;10.83;;
14470;SDS011;7321;50.802;4.336;2022-12-07T10:13:21;14.60;;;10.40;;
14470;SDS011;7321;50.802;4.336;2022-12-07T10:16:03;14.98;;;10.40;;
14470;SDS011;7321;50.802;4.336;2022-12-07T10:18:36;12.93;;;10.53;;
14470;SDS011;7321;50.802;4.336;2022-12-07T10:21:17;15.67;;;10.93;;
14470;SDS011;7321;50.802;4.336;2022-12-07T10:26:34;15.97;;;12.20;;
14470;SDS011;7321;50.802;4.336;2022-12-07T10:31:58;17.47;;;11.07;;
14470;SDS011;7321;50.802;4.336;2022-12-07T10:34:27;16.40;;;11.30;;
14470;SDS011;7321;50.802;4.336;2022-12-07T10:37:17;19.07;;;10.93;;
14470;SDS011;7321;50.802;4.336;2022-12-07T10:47:58;22.43;;;12.13;;
14470;SDS011;7321;50.802;4.336;2022-12-07T10:53:36;13.90;;;9.80;;
14470;SDS011;7321;50.802;4.336;2022-12-07T10:56:30;15.93;;;11.20;;
14470;SDS011;7321;50.802;4.336;2022-12-07T11:12:33;12.87;;;9.17;;
14470;SDS011;7321;50.802;4.336;2022-12-07T11:15:04;11.07;;;8.73;;
14470;SDS011;7321;50.802;4.336;2022-12-07T11:28:48;10.10;;;7.73;;
14470;SDS011;7321;50.802;4.336;2022-12-07T11:34:39;12.90;;;8.23;;
14470;SDS011;7321;50.802;4.336;2022-12-07T11:37:16;10.50;;;7.10;;
14470;SDS011;7321;50.802;4.336;2022-12-07T11:39:51;11.10;;;8.37;;
14470;SDS011;7321;50.802;4.336;2022-12-07T11:42:25;12.87;;;7.87;;
14470;SDS011;7321;50.802;4.336;2022-12-07T11:45:16;10.03;;;6.17;;
14470;SDS011;7321;50.802;4.336;2022-12-07T11:48:02;10.77;;;5.57;;
14470;SDS011;7321;50.802;4.336;2022-12-07T11:50:58;8.70;;;6.87;;
14470;SDS011;7321;50.802;4.336;2022-12-07T11:53:27;10.07;;;7.13;;
14470;SDS011;7321;50.802;4.336;2022-12-07T11:56:10;10.27;;;6.63;;
14470;SDS011;7321;50.802;4.336;2022-12-07T11:58:42;7.93;;;6.43;;
14470;SDS011;7321;50.802;4.336;2022-12-07T12:07:16;5.90;;;4.80;;
14470;SDS011;7321;50.802;4.336;2022-12-07T12:10:04;8.63;;;5.03;;
14470;SDS011;7321;50.802;4.336;2022-12-07T12:12:47;8.47;;;4.93;;
14470;SDS011;7321;50.802;4.336;2022-12-07T12:21:12;7.13;;;4.70;;
14470;SDS011;7321;50.802;4.336;2022-12-07T12:26:07;6.80;;;3.17;;
14470;SDS011;7321;50.802;4.336;2022-12-07T12:28:42;4.73;;;3.13;;
14470;SDS011;7321;50.802;4.336;2022-12-07T12:33:50;6.17;;;2.40;;
14470;SDS011;7321;50.802;4.336;2022-12-07T12:36:27;3.47;;;2.50;;
14470;SDS011;7321;50.802;4.336;2022-12-07T12:39:16;5.23;;;2.70;;
14470;SDS011;7321;50.802;4.336;2022-12-07T12:45:02;5.40;;;2.60;;
14470;SDS011;7321;50.802;4.336;2022-12-07T12:47:02;8.00;;;3.10;;
14470;SDS011;7321;50.802;4.336;2022-12-07T12:52:52;6.57;;;3.07;;
14470;SDS011;7321;50.802;4.336;2022-12-07T13:04:13;5.93;;;2.57;;
14470;SDS011;7321;50.802;4.336;2022-12-07T13:07:03;5.37;;;3.17;;
14470;SDS011;7321;50.802;4.336;2022-12-07T13:09:30;8.03;;;3.33;;
14470;SDS011;7321;50.802;4.336;2022-12-07T13:12:11;4.03;;;2.83;;
14470;SDS011;7321;50.802;4.336;2022-12-07T13:14:52;3.73;;;3.00;;
14470;SDS011;7321;50.802;4.336;2022-12-07T13:20:39;6.83;;;3.73;;
14470;SDS011;7321;50.802;4.336;2022-12-07T13:26:22;6.57;;;3.57;;
14470;SDS011;7321;50.802;4.336;2022-12-07T13:31:54;10.87;;;4.00;;
14470;SDS011;7321;50.802;4.336;2022-12-07T13:39:54;6.30;;;4.27;;
14470;SDS011;7321;50.802;4.336;2022-12-07T13:42:31;7.20;;;4.23;;
14470;SDS011;7321;50.802;4.336;2022-12-07T13:45:16;7.67;;;4.27;;
14470;SDS011;7321;50.802;4.336;2022-12-07T13:48:22;5.13;;;3.83;;
14470;SDS011;7321;50.802;4.336;2022-12-07T13:51:03;9.83;;;4.10;;
14470;SDS011;7321;50.802;4.336;2022-12-07T13:53:29;8.10;;;3.53;;
14470;SDS011;7321;50.802;4.336;2022-12-07T13:56:12;6.77;;;3.43;;
14470;SDS011;7321;50.802;4.336;2022-12-07T13:58:41;5.93;;;3.50;;
14470;SDS011;7321;50.802;4.336;2022-12-07T14:01:20;6.07;;;3.60;;
14470;SDS011;7321;50.802;4.336;2022-12-07T14:03:49;5.33;;;3.50;;
14470;SDS011;7321;50.802;4.336;2022-12-07T14:06:25;6.77;;;3.90;;
14470;SDS011;7321;50.802;4.336;2022-12-07T14:11:45;6.20;;;3.30;;
14470;SDS011;7321;50.802;4.336;2022-12-07T14:14:14;5.33;;;3.60;;
14470;SDS011;7321;50.802;4.336;2022-12-07T14:17:11;4.73;;;3.80;;
14470;SDS011;7321;50.802;4.336;2022-12-07T14:19:44;5.67;;;3.90;;
14470;SDS011;7321;50.802;4.336;2022-12-07T14:22:29;5.33;;;3.63;;
14470;SDS011;7321;50.802;4.336;2022-12-07T14:27:38;8.53;;;4.53;;
14470;SDS011;7321;50.802;4.336;2022-12-07T14:30:04;7.00;;;3.50;;
14470;SDS011;7321;50.802;4.336;2022-12-07T14:32:32;8.73;;;4.30;;
14470;SDS011;7321;50.802;4.336;2022-12-07T14:37:27;6.10;;;4.07;;
14470;SDS011;7321;50.802;4.336;2022-12-07T14:39:54;8.67;;;4.30;;
14470;SDS011;7321;50.802;4.336;2022-12-07T14:42:20;7.37;;;4.17;;
14470;SDS011;7321;50.802;4.336;2022-12-07T14:44:49;6.07;;;2.03;;
14470;SDS011;7321;50.802;4.336;2022-12-07T14:47:15;3.30;;;1.93;;
14470;SDS011;7321;50.802;4.336;2022-12-07T14:49:41;2.73;;;1.70;;
14470;SDS011;7321;50.802;4.336;2022-12-07T14:52:10;3.97;;;1.60;;
14470;SDS011;7321;50.802;4.336;2022-12-07T14:54:46;1.77;;;1.50;;
14470;SDS011;7321;50.802;4.336;2022-12-07T14:57:12;6.47;;;3.90;;
14470;SDS011;7321;50.802;4.336;2022-12-07T14:59:38;96.97;;;79.90;;
14470;SDS011;7321;50.802;4.336;2022-12-07T15:02:04;44.07;;;36.67;;
14470;SDS011;7321;50.802;4.336;2022-12-07T15:04:31;10.43;;;8.87;;
14470;SDS011;7321;50.802;4.336;2022-12-07T15:06:57;31.50;;;26.57;;
14470;SDS011;7321;50.802;4.336;2022-12-07T15:09:25;7.23;;;5.80;;
14470;SDS011;7321;50.802;4.336;2022-12-07T15:11:51;16.50;;;13.10;;
14470;SDS011;7321;50.802;4.336;2022-12-07T15:14:17;9.70;;;8.83;;
14470;SDS011;7321;50.802;4.336;2022-12-07T15:16:43;6.93;;;6.27;;
14470;SDS011;7321;50.802;4.336;2022-12-07T15:19:12;11.70;;;10.60;;
14470;SDS011;7321;50.802;4.336;2022-12-07T15:21:48;6.40;;;5.80;;
14470;SDS011;7321;50.802;4.336;2022-12-07T15:24:14;9.63;;;8.67;;
14470;SDS011;7321;50.802;4.336;2022-12-07T15:26:40;7.27;;;6.47;;
14470;SDS011;7321;50.802;4.336;2022-12-07T15:29:06;5.77;;;5.20;;
14470;SDS011;7321;50.802;4.336;2022-12-07T15:31:32;8.37;;;6.90;;
14470;SDS011;7321;50.802;4.336;2022-12-07T15:33:58;6.87;;;5.70;;
14470;SDS011;7321;50.802;4.336;2022-12-07T15:36:26;5.47;;;4.53;;
14470;SDS011;7321;50.802;4.336;2022-12-07T15:38:56;6.63;;;4.97;;
14470;SDS011;7321;50.802;4.336;2022-12-07T15:41:22;8.70;;;5.07;;
14470;SDS011;7321;50.802;4.336;2022-12-07T15:43:49;7.77;;;5.53;;
14470;SDS011;7321;50.802;4.336;2022-12-07T15:46:34;11.73;;;9.50;;
14470;SDS011;7321;50.802;4.336;2022-12-07T15:49:03;10.70;;;7.47;;
14470;SDS011;7321;50.802;4.336;2022-12-07T15:51:31;8.17;;;6.00;;
14470;SDS011;7321;50.802;4.336;2022-12-07T15:53:57;9.10;;;5.33;;
14470;SDS011;7321;50.802;4.336;2022-12-07T15:56:24;11.87;;;8.13;;
14470;SDS011;7321;50.802;4.336;2022-12-07T15:58:49;14.37;;;11.50;;
14470;SDS011;7321;50.802;4.336;2022-12-07T16:01:16;10.77;;;7.37;;
14470;SDS011;7321;50.802;4.336;2022-12-07T16:03:44;12.67;;;7.87;;
14470;SDS011;7321;50.802;4.336;2022-12-07T16:06:17;10.83;;;9.67;;
14470;SDS011;7321;50.802;4.336;2022-12-07T16:08:43;12.03;;;9.07;;
14470;SDS011;7321;50.802;4.336;2022-12-07T16:11:10;12.30;;;10.10;;
14470;SDS011;7321;50.802;4.336;2022-12-07T16:13:36;9.43;;;7.57;;
14470;SDS011;7321;50.802;4.336;2022-12-07T16:16:05;13.87;;;12.37;;
14470;SDS011;7321;50.802;4.336;2022-12-07T16:18:32;9.07;;;7.20;;
14470;SDS011;7321;50.802;4.336;2022-12-07T16:20:58;11.40;;;8.57;;
14470;SDS011;7321;50.802;4.336;2022-12-07T16:23:24;10.00;;;8.83;;
14470;SDS011;7321;50.802;4.336;2022-12-07T16:25:50;9.00;;;6.80;;
14470;SDS011;7321;50.802;4.336;2022-12-07T16:28:16;9.07;;;7.23;;
14470;SDS011;7321;50.802;4.336;2022-12-07T16:30:42;9.43;;;7.30;;
14470;SDS011;7321;50.802;4.336;2022-12-07T16:33:11;9.57;;;8.17;;
14470;SDS011;7321;50.802;4.336;2022-12-07T16:35:39;8.97;;;7.87;;
14470;SDS011;7321;50.802;4.336;2022-12-07T16:38:06;10.53;;;8.17;;
14470;SDS011;7321;50.802;4.336;2022-12-07T16:40:32;11.87;;;8.37;;
14470;SDS011;7321;50.802;4.336;2022-12-07T16:42:58;8.90;;;7.10;;
14470;SDS011;7321;50.802;4.336;2022-12-07T16:45:23;11.90;;;7.97;;
14470;SDS011;7321;50.802;4.336;2022-12-07T16:47:49;8.67;;;7.77;;
14470;SDS011;7321;50.802;4.336;2022-12-07T16:50:15;10.83;;;7.50;;
14470;SDS011;7321;50.802;4.336;2022-12-07T16:52:41;9.37;;;8.03;;
14470;SDS011;7321;50.802;4.336;2022-12-07T16:55:06;9.37;;;7.80;;
14470;SDS011;7321;50.802;4.336;2022-12-07T16:57:33;18.60;;;13.03;;
14470;SDS011;7321;50.802;4.336;2022-12-07T16:59:58;12.07;;;9.30;;
14470;SDS011;7321;50.802;4.336;2022-12-07T17:02:25;16.47;;;10.87;;
14470;SDS011;7321;50.802;4.336;2022-12-07T17:04:50;27.53;;;19.80;;